sensor_id;sensor_type;location;lat;lon;timestamp;temperature;humidity
17452;DHT22;8843;48.838;9.324;2022-09-17T00:01:19;17.50;73.20
17452;DHT22;8843;48.838;9.324;2022-09-17T00:03:50;17.50;73.30
17452;DHT22;8843;48.838;9.324;2022-09-17T00:06:18;17.40;73.10
17452;DHT22;8843;48.838;9.324;2022-09-17T00:08:45;17.40;73.20
17452;DHT22;8843;48.838;9.324;2022-09-17T00:11:14;17.40;73.10
17452;DHT22;8843;48.838;9.324;2022-09-17T00:13:42;17.40;73.00
17452;DHT22;8843;48.838;9.324;2022-09-17T00:16:11;17.40;73.00
17452;DHT22;8843;48.838;9.324;2022-09-17T00:18:38;17.40;73.20
17452;DHT22;8843;48.838;9.324;2022-09-17T00:21:13;17.40;73.30
17452;DHT22;8843;48.838;9.324;2022-09-17T00:23:40;17.30;72.30
17452;DHT22;8843;48.838;9.324;2022-09-17T00:26:07;17.30;72.90
17452;DHT22;8843;48.838;9.324;2022-09-17T00:28:34;17.40;72.80
17452;DHT22;8843;48.838;9.324;2022-09-17T00:31:06;17.30;72.50
17452;DHT22;8843;48.838;9.324;2022-09-17T00:33:34;17.40;73.20
17452;DHT22;8843;48.838;9.324;2022-09-17T00:36:02;17.40;73.10
17452;DHT22;8843;48.838;9.324;2022-09-17T00:38:30;17.30;72.40
17452;DHT22;8843;48.838;9.324;2022-09-17T00:40:57;17.40;72.80
17452;DHT22;8843;48.838;9.324;2022-09-17T00:43:39;17.40;73.00
17452;DHT22;8843;48.838;9.324;2022-09-17T00:46:15;17.40;72.90
17452;DHT22;8843;48.838;9.324;2022-09-17T00:48:46;17.40;72.70
17452;DHT22;8843;48.838;9.324;2022-09-17T00:51:16;17.40;72.90
17452;DHT22;8843;48.838;9.324;2022-09-17T00:53:44;17.40;73.00
17452;DHT22;8843;48.838;9.324;2022-09-17T00:56:17;17.40;73.00
17452;DHT22;8843;48.838;9.324;2022-09-17T00:58:48;17.40;73.00
17452;DHT22;8843;48.838;9.324;2022-09-17T01:01:16;17.30;72.90
17452;DHT22;8843;48.838;9.324;2022-09-17T01:03:43;17.40;73.00
17452;DHT22;8843;48.838;9.324;2022-09-17T01:06:18;17.40;72.90
17452;DHT22;8843;48.838;9.324;2022-09-17T01:08:58;17.30;72.60
17452;DHT22;8843;48.838;9.324;2022-09-17T01:11:42;17.30;72.90
17452;DHT22;8843;48.838;9.324;2022-09-17T01:14:20;17.30;72.80
17452;DHT22;8843;48.838;9.324;2022-09-17T01:16:59;17.30;72.80
17452;DHT22;8843;48.838;9.324;2022-09-17T01:22:33;17.30;72.80
17452;DHT22;8843;48.838;9.324;2022-09-17T01:25:20;17.30;72.80
17452;DHT22;8843;48.838;9.324;2022-09-17T01:33:50;17.30;72.70
17452;DHT22;8843;48.838;9.324;2022-09-17T01:36:41;17.30;72.70
17452;DHT22;8843;48.838;9.324;2022-09-17T01:39:16;17.30;72.70
17452;DHT22;8843;48.838;9.324;2022-09-17T01:41:50;17.30;72.80
17452;DHT22;8843;48.838;9.324;2022-09-17T01:44:22;17.30;72.70
17452;DHT22;8843;48.838;9.324;2022-09-17T01:46:56;17.30;72.80
17452;DHT22;8843;48.838;9.324;2022-09-17T01:49:29;17.30;72.70
17452;DHT22;8843;48.838;9.324;2022-09-17T01:51:57;17.30;72.70
17452;DHT22;8843;48.838;9.324;2022-09-17T01:54:26;17.30;72.70
17452;DHT22;8843;48.838;9.324;2022-09-17T01:56:56;17.30;72.70
17452;DHT22;8843;48.838;9.324;2022-09-17T01:59:29;17.30;72.70
17452;DHT22;8843;48.838;9.324;2022-09-17T02:02:05;17.30;72.70
17452;DHT22;8843;48.838;9.324;2022-09-17T02:04:35;17.20;72.10
17452;DHT22;8843;48.838;9.324;2022-09-17T02:07:07;17.20;72.70
17452;DHT22;8843;48.838;9.324;2022-09-17T02:09:40;17.20;72.70
17452;DHT22;8843;48.838;9.324;2022-09-17T02:12:11;17.20;72.60
17452;DHT22;8843;48.838;9.324;2022-09-17T02:14:44;17.20;73.40
17452;DHT22;8843;48.838;9.324;2022-09-17T02:17:15;17.20;72.40
17452;DHT22;8843;48.838;9.324;2022-09-17T02:19:45;17.20;73.50
17452;DHT22;8843;48.838;9.324;2022-09-17T02:22:20;17.20;72.70
17452;DHT22;8843;48.838;9.324;2022-09-17T02:24:55;17.20;71.60
17452;DHT22;8843;48.838;9.324;2022-09-17T02:27:39;17.20;72.30
17452;DHT22;8843;48.838;9.324;2022-09-17T02:30:10;17.20;72.80
17452;DHT22;8843;48.838;9.324;2022-09-17T02:32:39;17.10;72.40
17452;DHT22;8843;48.838;9.324;2022-09-17T02:35:08;17.10;72.70
17452;DHT22;8843;48.838;9.324;2022-09-17T02:37:34;17.10;72.10
17452;DHT22;8843;48.838;9.324;2022-09-17T02:40:02;17.10;72.80
17452;DHT22;8843;48.838;9.324;2022-09-17T02:42:39;17.20;72.80
17452;DHT22;8843;48.838;9.324;2022-09-17T02:45:15;17.10;72.60
17452;DHT22;8843;48.838;9.324;2022-09-17T02:48:09;17.10;72.60
17452;DHT22;8843;48.838;9.324;2022-09-17T02:50:57;17.20;72.70
17452;DHT22;8843;48.838;9.324;2022-09-17T02:53:34;17.20;72.60
17452;DHT22;8843;48.838;9.324;2022-09-17T02:56:11;17.20;72.60
17452;DHT22;8843;48.838;9.324;2022-09-17T02:58:45;17.20;72.60
17452;DHT22;8843;48.838;9.324;2022-09-17T03:01:18;17.10;72.30
17452;DHT22;8843;48.838;9.324;2022-09-17T03:03:48;17.10;72.50
17452;DHT22;8843;48.838;9.324;2022-09-17T03:06:17;17.10;72.50
17452;DHT22;8843;48.838;9.324;2022-09-17T03:08:44;17.20;72.50
17452;DHT22;8843;48.838;9.324;2022-09-17T03:11:12;17.10;72.40
17452;DHT22;8843;48.838;9.324;2022-09-17T03:13:39;17.10;72.50
17452;DHT22;8843;48.838;9.324;2022-09-17T03:16:07;17.10;72.50
17452;DHT22;8843;48.838;9.324;2022-09-17T03:18:34;17.10;72.50
17452;DHT22;8843;48.838;9.324;2022-09-17T03:21:02;17.10;72.40
17452;DHT22;8843;48.838;9.324;2022-09-17T03:23:29;17.10;72.40
17452;DHT22;8843;48.838;9.324;2022-09-17T03:25:57;17.10;72.40
17452;DHT22;8843;48.838;9.324;2022-09-17T03:28:24;17.10;72.40
17452;DHT22;8843;48.838;9.324;2022-09-17T03:30:51;17.10;72.40
17452;DHT22;8843;48.838;9.324;2022-09-17T03:33:18;17.10;71.90
17452;DHT22;8843;48.838;9.324;2022-09-17T03:35:45;17.00;72.30
17452;DHT22;8843;48.838;9.324;2022-09-17T03:38:14;17.10;72.50
17452;DHT22;8843;48.838;9.324;2022-09-17T03:40:41;17.10;72.50
17452;DHT22;8843;48.838;9.324;2022-09-17T03:43:08;17.10;72.50
17452;DHT22;8843;48.838;9.324;2022-09-17T03:45:35;17.10;71.80
17452;DHT22;8843;48.838;9.324;2022-09-17T03:48:02;17.10;72.40
17452;DHT22;8843;48.838;9.324;2022-09-17T03:50:29;17.10;72.50
17452;DHT22;8843;48.838;9.324;2022-09-17T03:52:56;17.10;72.40
17452;DHT22;8843;48.838;9.324;2022-09-17T03:55:24;17.00;72.30
17452;DHT22;8843;48.838;9.324;2022-09-17T03:57:51;17.00;72.30
17452;DHT22;8843;48.838;9.324;2022-09-17T04:00:18;17.10;72.40
17452;DHT22;8843;48.838;9.324;2022-09-17T04:02:45;17.00;72.30
17452;DHT22;8843;48.838;9.324;2022-09-17T04:05:12;17.00;72.30
17452;DHT22;8843;48.838;9.324;2022-09-17T04:07:39;17.00;72.20
17452;DHT22;8843;48.838;9.324;2022-09-17T04:10:07;17.00;72.20
17452;DHT22;8843;48.838;9.324;2022-09-17T04:12:35;17.00;72.20
17452;DHT22;8843;48.838;9.324;2022-09-17T04:15:03;17.00;72.20
17452;DHT22;8843;48.838;9.324;2022-09-17T04:17:30;17.00;71.50
17452;DHT22;8843;48.838;9.324;2022-09-17T04:19:57;17.00;72.10
17452;DHT22;8843;48.838;9.324;2022-09-17T04:22:24;17.00;72.30
17452;DHT22;8843;48.838;9.324;2022-09-17T04:24:50;17.00;72.30
17452;DHT22;8843;48.838;9.324;2022-09-17T04:27:17;16.90;71.90
17452;DHT22;8843;48.838;9.324;2022-09-17T04:29:46;16.90;73.00
17452;DHT22;8843;48.838;9.324;2022-09-17T04:32:12;16.90;70.70
17452;DHT22;8843;48.838;9.324;2022-09-17T04:34:39;16.90;72.00
17452;DHT22;8843;48.838;9.324;2022-09-17T04:37:06;16.90;72.20
17452;DHT22;8843;48.838;9.324;2022-09-17T04:39:33;16.90;71.60
17452;DHT22;8843;48.838;9.324;2022-09-17T04:42:00;16.90;72.30
17452;DHT22;8843;48.838;9.324;2022-09-17T04:44:27;16.90;72.30
17452;DHT22;8843;48.838;9.324;2022-09-17T04:46:55;16.90;72.30
17452;DHT22;8843;48.838;9.324;2022-09-17T04:49:22;16.90;72.30
17452;DHT22;8843;48.838;9.324;2022-09-17T04:51:49;16.80;69.00
17452;DHT22;8843;48.838;9.324;2022-09-17T04:54:16;16.80;72.40
17452;DHT22;8843;48.838;9.324;2022-09-17T04:56:43;16.80;72.20
17452;DHT22;8843;48.838;9.324;2022-09-17T04:59:10;16.90;72.30
17452;DHT22;8843;48.838;9.324;2022-09-17T05:01:37;16.70;68.80
17452;DHT22;8843;48.838;9.324;2022-09-17T05:04:05;16.80;72.50
17452;DHT22;8843;48.838;9.324;2022-09-17T05:06:32;16.80;72.30
17452;DHT22;8843;48.838;9.324;2022-09-17T05:08:59;16.80;72.00
17452;DHT22;8843;48.838;9.324;2022-09-17T05:11:26;16.80;72.30
17452;DHT22;8843;48.838;9.324;2022-09-17T05:13:53;16.80;72.20
17452;DHT22;8843;48.838;9.324;2022-09-17T05:16:20;16.80;72.20
17452;DHT22;8843;48.838;9.324;2022-09-17T05:18:47;16.90;72.20
17452;DHT22;8843;48.838;9.324;2022-09-17T05:21:17;16.80;72.00
17452;DHT22;8843;48.838;9.324;2022-09-17T05:23:45;16.70;71.90
17452;DHT22;8843;48.838;9.324;2022-09-17T05:26:12;16.80;72.20
17452;DHT22;8843;48.838;9.324;2022-09-17T05:28:40;16.80;72.00
17452;DHT22;8843;48.838;9.324;2022-09-17T05:31:07;16.70;71.30
17452;DHT22;8843;48.838;9.324;2022-09-17T05:33:34;16.80;72.20
17452;DHT22;8843;48.838;9.324;2022-09-17T05:36:01;16.80;70.50
17452;DHT22;8843;48.838;9.324;2022-09-17T05:38:29;16.70;71.30
17452;DHT22;8843;48.838;9.324;2022-09-17T05:40:56;16.80;72.10
17452;DHT22;8843;48.838;9.324;2022-09-17T05:43:23;16.80;72.90
17452;DHT22;8843;48.838;9.324;2022-09-17T05:45:50;16.70;71.50
17452;DHT22;8843;48.838;9.324;2022-09-17T05:48:18;16.70;71.30
17452;DHT22;8843;48.838;9.324;2022-09-17T05:50:45;16.60;70.40
17452;DHT22;8843;48.838;9.324;2022-09-17T05:53:13;16.60;71.40
17452;DHT22;8843;48.838;9.324;2022-09-17T05:55:41;16.70;72.50
17452;DHT22;8843;48.838;9.324;2022-09-17T05:58:09;16.70;72.00
17452;DHT22;8843;48.838;9.324;2022-09-17T06:00:36;16.80;72.10
17452;DHT22;8843;48.838;9.324;2022-09-17T06:03:04;16.70;71.60
17452;DHT22;8843;48.838;9.324;2022-09-17T06:05:30;15.70;65.10
17452;DHT22;8843;48.838;9.324;2022-09-17T06:07:57;15.20;66.70
17452;DHT22;8843;48.838;9.324;2022-09-17T06:10:24;14.90;66.70
17452;DHT22;8843;48.838;9.324;2022-09-17T06:12:56;14.90;66.60
17452;DHT22;8843;48.838;9.324;2022-09-17T06:15:23;15.00;66.40
17452;DHT22;8843;48.838;9.324;2022-09-17T06:17:50;15.10;70.60
17452;DHT22;8843;48.838;9.324;2022-09-17T06:20:17;15.30;66.90
17452;DHT22;8843;48.838;9.324;2022-09-17T06:22:44;15.90;77.30
17452;DHT22;8843;48.838;9.324;2022-09-17T06:25:11;16.20;71.90
17452;DHT22;8843;48.838;9.324;2022-09-17T06:27:38;16.10;70.50
17452;DHT22;8843;48.838;9.324;2022-09-17T06:30:07;15.30;66.10
17452;DHT22;8843;48.838;9.324;2022-09-17T06:32:34;14.90;67.20
17452;DHT22;8843;48.838;9.324;2022-09-17T06:35:01;14.60;68.40
17452;DHT22;8843;48.838;9.324;2022-09-17T06:37:29;14.40;67.80
17452;DHT22;8843;48.838;9.324;2022-09-17T06:39:56;14.40;68.10
17452;DHT22;8843;48.838;9.324;2022-09-17T06:42:23;14.40;68.00
17452;DHT22;8843;48.838;9.324;2022-09-17T06:44:51;14.30;68.10
17452;DHT22;8843;48.838;9.324;2022-09-17T06:47:19;14.40;68.40
17452;DHT22;8843;48.838;9.324;2022-09-17T06:49:46;14.60;69.60
17452;DHT22;8843;48.838;9.324;2022-09-17T06:52:13;14.50;67.50
17452;DHT22;8843;48.838;9.324;2022-09-17T06:54:40;14.70;67.80
17452;DHT22;8843;48.838;9.324;2022-09-17T06:57:06;14.50;67.50
17452;DHT22;8843;48.838;9.324;2022-09-17T06:59:33;14.90;71.70
17452;DHT22;8843;48.838;9.324;2022-09-17T07:02:00;14.80;66.90
17452;DHT22;8843;48.838;9.324;2022-09-17T07:04:28;14.70;67.50
17452;DHT22;8843;48.838;9.324;2022-09-17T07:06:55;14.60;71.10
17452;DHT22;8843;48.838;9.324;2022-09-17T07:09:22;14.70;67.50
17452;DHT22;8843;48.838;9.324;2022-09-17T07:11:49;14.70;67.00
17452;DHT22;8843;48.838;9.324;2022-09-17T07:14:16;14.60;70.90
17452;DHT22;8843;48.838;9.324;2022-09-17T07:16:43;14.70;66.60
17452;DHT22;8843;48.838;9.324;2022-09-17T07:19:10;14.50;66.90
17452;DHT22;8843;48.838;9.324;2022-09-17T07:21:39;14.50;68.20
17452;DHT22;8843;48.838;9.324;2022-09-17T07:24:06;14.50;75.70
17452;DHT22;8843;48.838;9.324;2022-09-17T07:26:33;14.90;72.90
17452;DHT22;8843;48.838;9.324;2022-09-17T07:28:59;15.00;73.00
17452;DHT22;8843;48.838;9.324;2022-09-17T07:31:26;15.20;72.50
17452;DHT22;8843;48.838;9.324;2022-09-17T07:33:53;15.20;71.10
17452;DHT22;8843;48.838;9.324;2022-09-17T07:36:20;15.40;71.00
17452;DHT22;8843;48.838;9.324;2022-09-17T07:38:48;15.60;70.30
17452;DHT22;8843;48.838;9.324;2022-09-17T07:41:16;15.80;70.40
17452;DHT22;8843;48.838;9.324;2022-09-17T07:43:43;15.90;70.00
17452;DHT22;8843;48.838;9.324;2022-09-17T07:46:13;15.90;70.80
17452;DHT22;8843;48.838;9.324;2022-09-17T07:48:41;16.00;70.00
17452;DHT22;8843;48.838;9.324;2022-09-17T07:51:09;16.00;70.10
17452;DHT22;8843;48.838;9.324;2022-09-17T07:53:39;16.10;70.30
17452;DHT22;8843;48.838;9.324;2022-09-17T07:56:08;16.10;70.20
17452;DHT22;8843;48.838;9.324;2022-09-17T07:58:35;16.20;70.60
17452;DHT22;8843;48.838;9.324;2022-09-17T08:01:02;16.10;70.70
17452;DHT22;8843;48.838;9.324;2022-09-17T08:03:30;16.20;70.20
17452;DHT22;8843;48.838;9.324;2022-09-17T08:06:01;16.20;70.40
17452;DHT22;8843;48.838;9.324;2022-09-17T08:08:30;15.80;71.60
17452;DHT22;8843;48.838;9.324;2022-09-17T08:11:00;15.90;72.10
17452;DHT22;8843;48.838;9.324;2022-09-17T08:13:28;16.00;71.40
17452;DHT22;8843;48.838;9.324;2022-09-17T08:15:57;16.00;70.80
17452;DHT22;8843;48.838;9.324;2022-09-17T08:18:25;16.00;71.20
17452;DHT22;8843;48.838;9.324;2022-09-17T08:20:55;15.90;70.20
17452;DHT22;8843;48.838;9.324;2022-09-17T08:23:22;15.40;70.50
17452;DHT22;8843;48.838;9.324;2022-09-17T08:25:52;15.60;74.70
17452;DHT22;8843;48.838;9.324;2022-09-17T08:28:18;15.80;72.30
17452;DHT22;8843;48.838;9.324;2022-09-17T08:30:47;15.90;71.90
17452;DHT22;8843;48.838;9.324;2022-09-17T08:33:15;16.00;71.60
17452;DHT22;8843;48.838;9.324;2022-09-17T08:35:42;15.30;70.40
17452;DHT22;8843;48.838;9.324;2022-09-17T08:38:09;14.90;71.40
17452;DHT22;8843;48.838;9.324;2022-09-17T08:40:44;14.60;71.80
17452;DHT22;8843;48.838;9.324;2022-09-17T08:43:16;14.90;75.10
17452;DHT22;8843;48.838;9.324;2022-09-17T08:45:44;15.10;73.40
17452;DHT22;8843;48.838;9.324;2022-09-17T08:48:18;14.50;73.10
17452;DHT22;8843;48.838;9.324;2022-09-17T08:50:45;14.60;73.60
17452;DHT22;8843;48.838;9.324;2022-09-17T08:53:26;15.10;72.80
17452;DHT22;8843;48.838;9.324;2022-09-17T08:56:00;15.60;73.10
17452;DHT22;8843;48.838;9.324;2022-09-17T08:58:50;15.40;72.10
17452;DHT22;8843;48.838;9.324;2022-09-17T09:01:25;15.20;74.10
17452;DHT22;8843;48.838;9.324;2022-09-17T09:04:17;15.80;74.60
17452;DHT22;8843;48.838;9.324;2022-09-17T09:06:52;16.20;70.70
17452;DHT22;8843;48.838;9.324;2022-09-17T09:09:23;16.20;70.90
17452;DHT22;8843;48.838;9.324;2022-09-17T09:11:59;16.50;70.70
17452;DHT22;8843;48.838;9.324;2022-09-17T09:14:30;16.60;70.00
17452;DHT22;8843;48.838;9.324;2022-09-17T09:17:03;16.50;69.10
17452;DHT22;8843;48.838;9.324;2022-09-17T09:19:39;16.40;69.20
17452;DHT22;8843;48.838;9.324;2022-09-17T09:22:38;16.00;70.70
17452;DHT22;8843;48.838;9.324;2022-09-17T09:25:17;16.20;70.40
17452;DHT22;8843;48.838;9.324;2022-09-17T09:27:49;16.10;70.50
17452;DHT22;8843;48.838;9.324;2022-09-17T09:30:18;16.10;70.90
17452;DHT22;8843;48.838;9.324;2022-09-17T09:32:56;16.00;70.70
17452;DHT22;8843;48.838;9.324;2022-09-17T09:35:26;16.00;71.30
17452;DHT22;8843;48.838;9.324;2022-09-17T09:37:58;16.00;71.10
17452;DHT22;8843;48.838;9.324;2022-09-17T09:40:35;16.00;71.50
17452;DHT22;8843;48.838;9.324;2022-09-17T09:43:13;16.00;71.60
17452;DHT22;8843;48.838;9.324;2022-09-17T09:45:53;16.00;71.40
17452;DHT22;8843;48.838;9.324;2022-09-17T09:48:28;16.00;72.60
17452;DHT22;8843;48.838;9.324;2022-09-17T09:51:11;16.00;71.50
17452;DHT22;8843;48.838;9.324;2022-09-17T09:53:48;15.90;71.70
17452;DHT22;8843;48.838;9.324;2022-09-17T09:56:34;15.90;71.50
17452;DHT22;8843;48.838;9.324;2022-09-17T09:59:06;15.90;72.60
17452;DHT22;8843;48.838;9.324;2022-09-17T10:01:36;16.00;72.00
17452;DHT22;8843;48.838;9.324;2022-09-17T10:04:15;16.00;71.90
17452;DHT22;8843;48.838;9.324;2022-09-17T10:06:44;16.00;71.60
17452;DHT22;8843;48.838;9.324;2022-09-17T10:09:13;16.00;72.10
17452;DHT22;8843;48.838;9.324;2022-09-17T10:11:41;16.00;72.20
17452;DHT22;8843;48.838;9.324;2022-09-17T10:14:21;15.90;70.20
17452;DHT22;8843;48.838;9.324;2022-09-17T10:16:49;15.80;72.90
17452;DHT22;8843;48.838;9.324;2022-09-17T10:19:19;15.90;72.30
17452;DHT22;8843;48.838;9.324;2022-09-17T10:21:50;15.90;72.30
17452;DHT22;8843;48.838;9.324;2022-09-17T10:24:22;15.90;72.00
17452;DHT22;8843;48.838;9.324;2022-09-17T10:26:50;15.90;71.90
17452;DHT22;8843;48.838;9.324;2022-09-17T10:29:18;16.00;72.10
17452;DHT22;8843;48.838;9.324;2022-09-17T10:31:47;15.80;72.20
17452;DHT22;8843;48.838;9.324;2022-09-17T10:34:19;15.90;71.60
17452;DHT22;8843;48.838;9.324;2022-09-17T10:36:47;15.90;71.10
17452;DHT22;8843;48.838;9.324;2022-09-17T10:39:30;15.90;71.50
17452;DHT22;8843;48.838;9.324;2022-09-17T10:42:00;15.90;72.50
17452;DHT22;8843;48.838;9.324;2022-09-17T10:44:28;16.00;71.20
17452;DHT22;8843;48.838;9.324;2022-09-17T10:47:05;16.00;71.70
17452;DHT22;8843;48.838;9.324;2022-09-17T10:49:38;16.00;71.30
17452;DHT22;8843;48.838;9.324;2022-09-17T10:52:10;16.00;72.00
17452;DHT22;8843;48.838;9.324;2022-09-17T10:55:03;16.10;71.90
17452;DHT22;8843;48.838;9.324;2022-09-17T11:00:43;16.40;74.20
17452;DHT22;8843;48.838;9.324;2022-09-17T11:03:48;16.50;72.00
17452;DHT22;8843;48.838;9.324;2022-09-17T11:06:30;16.60;71.50
17452;DHT22;8843;48.838;9.324;2022-09-17T11:09:06;16.60;70.20
17452;DHT22;8843;48.838;9.324;2022-09-17T11:11:46;16.60;69.70
17452;DHT22;8843;48.838;9.324;2022-09-17T11:14:31;16.60;68.40
17452;DHT22;8843;48.838;9.324;2022-09-17T11:17:09;16.60;69.40
17452;DHT22;8843;48.838;9.324;2022-09-17T11:19:43;16.70;68.90
17452;DHT22;8843;48.838;9.324;2022-09-17T11:22:17;16.70;69.20
17452;DHT22;8843;48.838;9.324;2022-09-17T11:28:03;16.70;69.60
17452;DHT22;8843;48.838;9.324;2022-09-17T11:30:43;16.80;68.40
17452;DHT22;8843;48.838;9.324;2022-09-17T11:33:32;16.80;67.80
17452;DHT22;8843;48.838;9.324;2022-09-17T11:36:09;16.80;68.20
17452;DHT22;8843;48.838;9.324;2022-09-17T11:38:39;16.80;67.70
17452;DHT22;8843;48.838;9.324;2022-09-17T11:41:11;16.80;66.90
17452;DHT22;8843;48.838;9.324;2022-09-17T11:43:43;16.80;67.20
17452;DHT22;8843;48.838;9.324;2022-09-17T11:46:16;16.80;66.60
17452;DHT22;8843;48.838;9.324;2022-09-17T11:48:46;16.70;67.30
17452;DHT22;8843;48.838;9.324;2022-09-17T11:51:21;16.70;68.70
17452;DHT22;8843;48.838;9.324;2022-09-17T11:53:53;16.60;69.10
17452;DHT22;8843;48.838;9.324;2022-09-17T11:56:25;16.60;69.80
17452;DHT22;8843;48.838;9.324;2022-09-17T11:59:00;16.50;70.00
17452;DHT22;8843;48.838;9.324;2022-09-17T12:01:31;16.50;70.60
17452;DHT22;8843;48.838;9.324;2022-09-17T12:04:26;16.50;70.70
17452;DHT22;8843;48.838;9.324;2022-09-17T12:07:00;16.40;70.80
17452;DHT22;8843;48.838;9.324;2022-09-17T12:09:31;16.40;70.70
17452;DHT22;8843;48.838;9.324;2022-09-17T12:12:02;16.40;70.60
17452;DHT22;8843;48.838;9.324;2022-09-17T12:14:41;16.40;69.60
17452;DHT22;8843;48.838;9.324;2022-09-17T12:17:14;16.40;69.70
17452;DHT22;8843;48.838;9.324;2022-09-17T12:19:45;16.40;71.20
17452;DHT22;8843;48.838;9.324;2022-09-17T12:22:17;16.30;70.50
17452;DHT22;8843;48.838;9.324;2022-09-17T12:24:49;16.40;71.10
17452;DHT22;8843;48.838;9.324;2022-09-17T12:27:24;16.40;70.90
17452;DHT22;8843;48.838;9.324;2022-09-17T12:30:08;16.40;70.10
17452;DHT22;8843;48.838;9.324;2022-09-17T12:32:46;16.40;70.20
17452;DHT22;8843;48.838;9.324;2022-09-17T12:35:26;16.40;70.60
17452;DHT22;8843;48.838;9.324;2022-09-17T12:38:04;16.40;70.70
17452;DHT22;8843;48.838;9.324;2022-09-17T12:40:39;16.40;70.60
17452;DHT22;8843;48.838;9.324;2022-09-17T12:43:18;16.30;70.10
17452;DHT22;8843;48.838;9.324;2022-09-17T12:46:10;16.40;71.50
17452;DHT22;8843;48.838;9.324;2022-09-17T12:51:52;16.40;71.60
17452;DHT22;8843;48.838;9.324;2022-09-17T12:54:31;16.40;71.60
17452;DHT22;8843;48.838;9.324;2022-09-17T12:57:06;16.50;71.60
17452;DHT22;8843;48.838;9.324;2022-09-17T12:59:39;16.50;72.00
17452;DHT22;8843;48.838;9.324;2022-09-17T13:02:16;16.50;72.10
17452;DHT22;8843;48.838;9.324;2022-09-17T13:05:09;16.50;70.70
17452;DHT22;8843;48.838;9.324;2022-09-17T13:08:06;16.50;70.70
17452;DHT22;8843;48.838;9.324;2022-09-17T14:27:17;16.40;64.30
17452;DHT22;8843;48.838;9.324;2022-09-17T14:30:05;16.40;65.70
17452;DHT22;8843;48.838;9.324;2022-09-17T14:32:38;16.40;65.70
17452;DHT22;8843;48.838;9.324;2022-09-17T14:35:21;16.50;65.40
17452;DHT22;8843;48.838;9.324;2022-09-17T14:38:01;16.50;65.40
17452;DHT22;8843;48.838;9.324;2022-09-17T14:40:41;16.60;64.30
17452;DHT22;8843;48.838;9.324;2022-09-17T14:43:15;17.10;63.10
17452;DHT22;8843;48.838;9.324;2022-09-17T14:45:44;17.30;62.80
17452;DHT22;8843;48.838;9.324;2022-09-17T14:48:27;17.30;62.80
17452;DHT22;8843;48.838;9.324;2022-09-17T14:51:25;17.30;63.70
17452;DHT22;8843;48.838;9.324;2022-09-17T14:54:14;17.30;63.10
17452;DHT22;8843;48.838;9.324;2022-09-17T14:56:55;17.10;63.30
17452;DHT22;8843;48.838;9.324;2022-09-17T14:59:37;17.00;63.50
17452;DHT22;8843;48.838;9.324;2022-09-17T15:02:22;17.00;63.80
17452;DHT22;8843;48.838;9.324;2022-09-17T15:04:52;16.90;63.40
17452;DHT22;8843;48.838;9.324;2022-09-17T15:07:20;16.80;63.80
17452;DHT22;8843;48.838;9.324;2022-09-17T15:09:47;16.80;64.10
17452;DHT22;8843;48.838;9.324;2022-09-17T15:12:18;16.80;64.10
17452;DHT22;8843;48.838;9.324;2022-09-17T15:14:47;16.70;64.20
17452;DHT22;8843;48.838;9.324;2022-09-17T15:17:16;16.70;64.80
17452;DHT22;8843;48.838;9.324;2022-09-17T15:19:47;16.70;65.00
17452;DHT22;8843;48.838;9.324;2022-09-17T15:22:17;16.40;63.40
17452;DHT22;8843;48.838;9.324;2022-09-17T15:24:47;16.30;63.70
17452;DHT22;8843;48.838;9.324;2022-09-17T15:27:19;16.30;66.90
17452;DHT22;8843;48.838;9.324;2022-09-17T15:29:51;16.50;63.70
17452;DHT22;8843;48.838;9.324;2022-09-17T15:32:20;16.40;64.00
17452;DHT22;8843;48.838;9.324;2022-09-17T15:37:44;16.20;65.10
17452;DHT22;8843;48.838;9.324;2022-09-17T15:40:12;16.30;66.80
17452;DHT22;8843;48.838;9.324;2022-09-17T15:42:47;16.30;64.90
17452;DHT22;8843;48.838;9.324;2022-09-17T15:45:19;16.20;65.30
17452;DHT22;8843;48.838;9.324;2022-09-17T15:47:52;16.30;66.20
17452;DHT22;8843;48.838;9.324;2022-09-17T15:50:21;16.30;66.10
17452;DHT22;8843;48.838;9.324;2022-09-17T15:52:50;16.20;66.10
17452;DHT22;8843;48.838;9.324;2022-09-17T15:55:31;16.20;66.20
17452;DHT22;8843;48.838;9.324;2022-09-17T15:58:01;16.20;66.30
17452;DHT22;8843;48.838;9.324;2022-09-17T16:00:30;16.20;66.20
17452;DHT22;8843;48.838;9.324;2022-09-17T16:02:57;16.20;66.70
17452;DHT22;8843;48.838;9.324;2022-09-17T16:05:47;16.20;67.00
17452;DHT22;8843;48.838;9.324;2022-09-17T16:08:22;16.20;66.70
17452;DHT22;8843;48.838;9.324;2022-09-17T16:10:49;16.20;67.40
17452;DHT22;8843;48.838;9.324;2022-09-17T16:13:16;16.20;66.90
17452;DHT22;8843;48.838;9.324;2022-09-17T16:15:45;16.20;67.70
17452;DHT22;8843;48.838;9.324;2022-09-17T16:18:13;16.10;66.50
17452;DHT22;8843;48.838;9.324;2022-09-17T16:20:40;16.10;67.20
17452;DHT22;8843;48.838;9.324;2022-09-17T16:23:07;16.20;67.20
17452;DHT22;8843;48.838;9.324;2022-09-17T16:25:36;16.20;67.60
17452;DHT22;8843;48.838;9.324;2022-09-17T16:28:12;16.20;67.70
17452;DHT22;8843;48.838;9.324;2022-09-17T16:30:42;16.10;67.30
17452;DHT22;8843;48.838;9.324;2022-09-17T16:33:13;16.10;67.10
17452;DHT22;8843;48.838;9.324;2022-09-17T16:35:40;16.10;67.20
17452;DHT22;8843;48.838;9.324;2022-09-17T16:38:08;16.10;67.70
17452;DHT22;8843;48.838;9.324;2022-09-17T16:40:39;16.10;67.40
17452;DHT22;8843;48.838;9.324;2022-09-17T16:43:06;16.10;66.90
17452;DHT22;8843;48.838;9.324;2022-09-17T16:45:34;16.10;67.10
17452;DHT22;8843;48.838;9.324;2022-09-17T16:48:01;16.10;67.50
17452;DHT22;8843;48.838;9.324;2022-09-17T16:50:30;16.10;67.70
17452;DHT22;8843;48.838;9.324;2022-09-17T16:52:57;16.10;67.00
17452;DHT22;8843;48.838;9.324;2022-09-17T16:55:24;16.10;67.70
17452;DHT22;8843;48.838;9.324;2022-09-17T16:57:51;16.10;68.10
17452;DHT22;8843;48.838;9.324;2022-09-17T17:00:19;16.10;67.50
17452;DHT22;8843;48.838;9.324;2022-09-17T17:02:54;16.10;68.10
17452;DHT22;8843;48.838;9.324;2022-09-17T17:05:22;16.10;68.20
17452;DHT22;8843;48.838;9.324;2022-09-17T17:07:51;16.10;67.70
17452;DHT22;8843;48.838;9.324;2022-09-17T17:10:19;16.10;68.30
17452;DHT22;8843;48.838;9.324;2022-09-17T17:12:46;16.20;68.10
17452;DHT22;8843;48.838;9.324;2022-09-17T17:15:13;16.20;68.60
17452;DHT22;8843;48.838;9.324;2022-09-17T17:17:40;16.10;68.30
17452;DHT22;8843;48.838;9.324;2022-09-17T17:20:08;16.10;68.30
17452;DHT22;8843;48.838;9.324;2022-09-17T17:22:37;16.10;68.40
17452;DHT22;8843;48.838;9.324;2022-09-17T17:25:06;16.10;68.10
17452;DHT22;8843;48.838;9.324;2022-09-17T17:27:33;16.00;68.70
17452;DHT22;8843;48.838;9.324;2022-09-17T17:30:00;16.00;69.40
17452;DHT22;8843;48.838;9.324;2022-09-17T17:32:30;16.00;69.50
17452;DHT22;8843;48.838;9.324;2022-09-17T17:34:56;16.00;69.70
17452;DHT22;8843;48.838;9.324;2022-09-17T17:37:23;16.10;69.70
17452;DHT22;8843;48.838;9.324;2022-09-17T17:39:51;16.10;69.80
17452;DHT22;8843;48.838;9.324;2022-09-17T17:42:20;16.00;70.00
17452;DHT22;8843;48.838;9.324;2022-09-17T17:44:47;16.10;70.20
17452;DHT22;8843;48.838;9.324;2022-09-17T17:47:14;16.10;70.20
17452;DHT22;8843;48.838;9.324;2022-09-17T17:49:41;16.10;70.10